Time;durP1;ratioP1;P1;durP2;ratioP2;P2;SDS_P1;SDS_P2;PMS_P1;PMS_P2;Temp;Humidity;BMP_temperature;BMP_pressure;BME280_temperature;BME280_humidity;BME280_pressure;Samples;Min_cycle;Max_cycle;Signal;HPM_P1;HPM_P2
2022/05/27 00:01:52;;;;;;;3.50;2.40;;;;;;;20.23;80.88;95048.84;5076382;28;20185;-64
2022/05/27 00:04:18;;;;;;;3.78;2.50;;;;;;;20.17;79.89;95074.56;5076065;28;20677;-60
2022/05/27 00:06:43;;;;;;;5.13;2.65;;;;;;;20.24;80.54;95060.78;5076315;28;20185;-61
2022/05/27 00:09:09;;;;;;;3.97;2.60;;;;;;;20.36;79.64;95066.31;5076016;28;20215;-64
2022/05/27 00:11:34;;;;;;;3.97;3.00;;;;;;;20.37;80.89;95042.88;5094545;28;20561;-61
2022/05/27 00:13:59;;;;;;;2.90;1.92;;;;;;;20.43;80.07;95054.28;5075960;28;20580;-63
2022/05/27 00:16:25;;;;;;;5.10;2.50;;;;;;;20.42;80.38;95047.50;5075966;28;20271;-63
2022/05/27 00:18:51;;;;;;;4.25;2.90;;;;;;;20.27;79.68;95067.38;5093994;28;20192;-60
2022/05/27 00:21:17;;;;;;;3.72;2.58;;;;;;;20.35;79.92;95056.94;5094195;28;20711;-64
2022/05/27 00:23:43;;;;;;;3.65;2.30;;;;;;;20.29;79.85;95058.47;5093611;28;20243;-63
2022/05/27 00:26:09;;;;;;;4.22;2.42;;;;;;;20.35;80.75;95050.00;5093528;28;20208;-59
2022/05/27 00:28:34;;;;;;;4.75;2.35;;;;;;;20.30;81.52;95036.03;5093764;28;20215;-59
2022/05/27 00:31:00;;;;;;;2.85;2.60;;;;;;;20.15;80.87;95038.59;5093919;28;20180;-63
2022/05/27 00:33:25;;;;;;;2.60;2.35;;;;;;;20.58;80.23;95048.09;5075400;28;20201;-64
2022/05/27 00:35:51;;;;;;;4.00;2.30;;;;;;;20.42;81.72;95024.28;5093385;28;20203;-60
2022/05/27 00:38:18;;;;;;;9.10;5.07;;;;;;;20.40;81.44;95027.00;5075290;28;20673;-60
2022/05/27 00:40:49;;;;;;;7.55;5.75;;;;;;;20.54;80.52;95039.09;5093626;28;20585;-60
2022/05/27 00:43:15;;;;;;;5.25;3.53;;;;;;;20.24;82.58;95008.34;5075168;28;20707;-64
2022/05/27 00:45:43;;;;;;;4.35;3.78;;;;;;;20.42;81.96;95021.69;5093406;28;20658;-64
2022/05/27 00:48:19;;;;;;;3.58;3.25;;;;;;;20.43;80.76;95038.78;5075220;28;20211;-63
2022/05/27 00:50:47;;;;;;;4.63;3.85;;;;;;;20.42;81.29;95029.44;5075073;28;20187;-60
2022/05/27 00:53:18;;;;;;;6.22;3.97;;;;;;;20.35;81.80;95023.38;5093577;28;20200;-59
2022/05/27 00:55:49;;;;;;;7.57;4.72;;;;;;;20.24;83.46;94995.44;5093720;28;20176;-59
2022/05/27 00:58:23;;;;;;;9.82;4.25;;;;;;;20.09;83.69;94991.06;5092271;28;20192;-64
2022/05/27 01:00:50;;;;;;;5.25;4.72;;;;;;;19.88;84.34;94988.38;5093583;28;20738;-67
2022/05/27 01:03:17;;;;;;;6.22;4.32;;;;;;;19.75;85.18;94977.91;5093127;28;20200;-64
2022/05/27 01:05:46;;;;;;;7.13;5.30;;;;;;;19.68;86.11;94974.41;5074105;28;20646;-59
2022/05/27 01:08:16;;;;;;;8.32;5.13;;;;;;;19.56;86.49;94975.81;5092849;28;20245;-64
2022/05/27 01:11:17;;;;;;;7.80;4.57;;;;;;;19.54;87.26;94976.97;5075164;28;20271;-63
2022/05/27 01:14:03;;;;;;;5.00;4.45;;;;;;;19.36;88.38;94967.00;5074723;28;20204;-63
2022/05/27 01:16:49;;;;;;;7.70;4.65;;;;;;;19.20;90.07;94974.84;5093200;28;20181;-64
2022/05/27 01:20:19;;;;;;;7.25;4.70;;;;;;;19.22;87.58;94990.94;5093066;28;20192;-61
2022/05/27 01:23:11;;;;;;;8.18;5.38;;;;;;;19.11;88.22;94974.09;5066832;28;20256;-60
2022/05/27 01:25:58;;;;;;;5.72;4.90;;;;;;;19.04;88.05;94985.28;5092952;28;20578;-64
2022/05/27 01:28:44;;;;;;;6.82;5.57;;;;;;;19.00;87.63;94982.25;5092821;28;20188;-62
2022/05/27 01:31:52;;;;;;;8.10;5.10;;;;;;;18.77;90.00;94960.03;5074357;28;20211;-61
2022/05/27 01:34:45;;;;;;;7.25;5.10;;;;;;;18.65;90.69;94959.66;4994288;28;20212;-64
2022/05/27 01:37:28;;;;;;;11.02;5.63;;;;;;;18.57;91.31;94953.75;5010784;28;20292;-62
2022/05/27 01:39:58;;;;;;;18.48;12.82;;;;;;;18.33;93.71;94941.78;5075641;28;20260;-64
2022/05/27 01:42:27;;;;;;;7.53;5.40;;;;;;;18.38;94.95;94947.25;5092785;28;20229;-64
2022/05/27 01:44:58;;;;;;;12.32;5.82;;;;;;;18.56;93.71;94952.16;5092261;28;20179;-62
2022/05/27 01:47:38;;;;;;;8.68;5.65;;;;;;;18.63;91.88;94969.31;5074346;28;20186;-62
2022/05/27 01:50:09;;;;;;;9.52;6.13;;;;;;;18.70;92.02;94967.66;5092654;28;20164;-61
2022/05/27 01:52:47;;;;;;;11.52;5.40;;;;;;;18.65;93.04;94957.06;5092434;28;20177;-59
2022/05/27 01:55:28;;;;;;;9.60;5.55;;;;;;;18.73;91.58;94975.03;5092472;28;20267;-59
2022/05/27 01:58:16;;;;;;;6.38;5.40;;;;;;;18.72;90.83;94980.38;5074014;28;20294;-64
2022/05/27 02:00:45;;;;;;;11.10;5.85;;;;;;;18.58;91.96;94965.66;5092375;28;20360;-63
2022/05/27 02:03:33;;;;;;;7.63;5.30;;;;;;;18.49;90.71;94979.53;5073970;28;20200;-60
2022/05/27 02:06:02;;;;;;;8.13;6.03;;;;;;;18.50;90.32;94986.31;5092523;28;20267;-65
2022/05/27 02:08:35;;;;;;;8.13;5.43;;;;;;;18.36;91.78;94972.38;5092284;28;20242;-61
2022/05/27 02:11:04;;;;;;;6.28;4.93;;;;;;;18.33;90.08;94982.97;5092100;28;20180;-59
2022/05/27 02:13:54;;;;;;;10.18;5.35;;;;;;;17.94;94.51;94949.53;5092182;28;20577;-63
2022/05/27 02:16:27;;;;;;;6.65;5.22;;;;;;;18.19;93.42;94963.91;5092344;28;20596;-66
2022/05/27 02:19:00;;;;;;;5.57;4.95;;;;;;;18.35;93.04;94963.81;5091718;28;20706;-59
2022/05/27 02:21:34;;;;;;;16.23;11.05;;;;;;;18.33;91.31;94970.91;5092178;28;20306;-64
2022/05/27 02:24:12;;;;;;;7.72;5.47;;;;;;;18.37;91.96;94968.78;5073491;28;20200;-63
2022/05/27 02:26:41;;;;;;;6.85;4.60;;;;;;;18.53;89.88;94986.75;5074087;28;20184;-61
2022/05/27 02:29:11;;;;;;;8.85;4.60;;;;;;;18.42;90.71;94974.25;5091906;28;20224;-63
2022/05/27 02:31:40;;;;;;;7.60;4.80;;;;;;;18.19;92.69;94966.50;5073786;28;20195;-64
2022/05/27 02:37:19;;;;;;;8.80;4.80;;;;;;;18.21;93.65;94964.53;5091846;28;20203;-60
2022/05/27 02:39:45;;;;;;;7.63;4.88;;;;;;;18.42;92.78;94975.03;5091901;28;20188;-60
2022/05/27 02:42:34;;;;;;;8.27;5.25;;;;;;;18.54;92.33;94982.41;5092241;28;20184;-64
2022/05/27 02:45:33;;;;;;;6.72;5.00;;;;;;;18.73;91.04;95000.00;5053554;28;20184;-64
2022/05/27 02:48:10;;;;;;;5.93;5.28;;;;;;;18.69;91.76;94986.66;5091634;28;20191;-60
2022/05/27 02:51:04;;;;;;;10.43;5.10;;;;;;;18.74;90.97;94986.97;5091870;28;20180;-64
2022/05/27 02:53:30;;;;;;;9.20;6.20;;;;;;;18.60;90.98;94989.47;5091658;28;20677;-60
2022/05/27 02:56:24;;;;;;;10.25;5.13;;;;;;;18.85;90.17;94999.44;5091915;28;20181;-61
2022/05/27 02:58:49;;;;;;;5.65;4.40;;;;;;;18.99;89.26;95000.44;5091563;28;20228;-59
2022/05/27 03:01:16;;;;;;;10.32;5.45;;;;;;;18.87;88.95;95004.41;5091663;28;20247;-61
2022/05/27 03:03:43;;;;;;;7.13;5.88;;;;;;;18.66;89.30;94993.94;5091446;28;20697;-61
2022/05/27 03:06:26;;;;;;;9.63;5.43;;;;;;;18.49;91.32;94982.13;5091860;28;20180;-61
2022/05/27 03:09:10;;;;;;;12.85;5.93;;;;;;;18.44;91.86;94980.84;5091617;28;20208;-64
2022/05/27 03:11:54;;;;;;;8.57;4.75;;;;;;;18.54;90.73;94996.09;5092075;28;20184;-65
2022/05/27 03:14:28;;;;;;;7.85;5.57;;;;;;;18.57;90.50;94998.31;5091386;28;20665;-60
2022/05/27 03:17:06;;;;;;;6.75;5.07;;;;;;;18.33;92.20;94978.63;5073449;28;20574;-62
2022/05/27 03:19:44;;;;;;;7.75;4.95;;;;;;;18.27;92.57;94978.50;5073057;28;20203;-64
2022/05/27 03:22:28;;;;;;;7.32;4.78;;;;;;;18.18;92.61;94992.41;5091542;28;20646;-59
2022/05/27 03:25:07;;;;;;;7.20;5.38;;;;;;;18.07;93.23;94975.53;5072842;28;20263;-61
2022/05/27 03:27:43;;;;;;;7.50;5.00;;;;;;;18.47;91.55;94994.34;5091430;28;20160;-61
2022/05/27 03:30:22;;;;;;;7.18;5.20;;;;;;;18.49;92.03;94992.41;5093273;28;20168;-65
2022/05/27 03:32:59;;;;;;;9.60;5.00;;;;;;;18.55;92.04;94986.59;5094947;28;20335;-61
2022/05/27 03:35:34;;;;;;;7.57;5.38;;;;;;;18.90;89.90;95014.38;5094822;28;20191;-60
2022/05/27 03:38:15;;;;;;;7.07;5.35;;;;;;;18.72;90.94;95004.38;5076382;28;20227;-59
2022/05/27 03:40:43;;;;;;;8.20;5.68;;;;;;;18.81;90.76;94999.94;5095137;28;20215;-67
2022/05/27 03:43:10;;;;;;;7.60;5.53;;;;;;;18.89;90.18;95007.63;5094591;28;20192;-62
2022/05/27 03:45:50;;;;;;;7.28;5.32;;;;;;;18.84;90.43;94997.84;5094668;28;20216;-59
2022/05/27 03:48:17;;;;;;;12.02;6.13;;;;;;;18.80;90.41;95000.94;5094825;28;20216;-59
2022/05/27 03:50:45;;;;;;;8.43;5.68;;;;;;;18.73;91.06;94998.22;5094657;28;20614;-61
2022/05/27 03:53:11;;;;;;;11.57;6.13;;;;;;;18.71;91.22;94991.63;5076054;28;20688;-62
2022/05/27 03:55:41;;;;;;;8.02;6.07;;;;;;;18.54;93.05;94979.84;5076189;28;20185;-62
2022/05/27 03:58:07;;;;;;;10.20;6.05;;;;;;;18.40;94.40;94974.41;5076439;28;20216;-63
2022/05/27 04:00:32;;;;;;;9.98;6.10;;;;;;;18.43;94.59;94971.53;5094146;28;20235;-62
2022/05/27 04:02:57;;;;;;;7.38;5.70;;;;;;;18.62;93.87;94982.38;5094429;28;20193;-62
2022/05/27 04:05:23;;;;;;;12.52;6.30;;;;;;;18.86;92.52;94995.91;5094337;28;20313;-64
2022/05/27 04:07:48;;;;;;;10.80;5.43;;;;;;;18.91;91.89;94997.94;5075866;28;20203;-64
2022/05/27 04:10:15;;;;;;;10.23;5.55;;;;;;;18.97;90.66;95010.94;5094270;28;20517;-63
2022/05/27 04:12:40;;;;;;;6.45;4.68;;;;;;;18.80;92.57;94991.44;5094485;28;20621;-68
2022/05/27 04:15:06;;;;;;;7.90;5.80;;;;;;;18.78;93.94;94982.25;5094068;28;20329;-64
2022/05/27 04:17:31;;;;;;;9.57;4.55;;;;;;;18.81;93.99;94981.91;5094359;28;20177;-59
2022/05/27 04:19:58;;;;;;;6.88;5.28;;;;;;;18.78;94.52;94983.06;5093741;28;20204;-60
2022/05/27 04:22:24;;;;;;;5.32;4.82;;;;;;;18.75;93.59;94988.56;5093824;28;20221;-65
2022/05/27 04:24:50;;;;;;;6.68;4.60;;;;;;;18.78;93.09;94984.84;5093807;28;20543;-63
2022/05/27 04:27:18;;;;;;;7.95;5.35;;;;;;;18.78;94.36;94983.06;5094388;28;20559;-62
2022/05/27 04:29:49;;;;;;;8.10;5.00;;;;;;;18.87;93.37;94989.75;5093702;28;20180;-62
2022/05/27 04:32:15;;;;;;;7.93;6.22;;;;;;;19.09;90.88;95006.19;5075811;28;20184;-59
2022/05/27 04:34:41;;;;;;;7.18;5.18;;;;;;;19.18;90.71;95005.16;5094011;28;20603;-64
2022/05/27 04:37:07;;;;;;;10.55;5.47;;;;;;;19.09;91.79;94995.88;5094016;28;20188;-63
2022/05/27 04:39:34;;;;;;;9.35;4.82;;;;;;;19.01;90.64;95004.47;5075379;28;20283;-62
2022/05/27 04:42:00;;;;;;;7.10;5.47;;;;;;;18.98;92.75;94986.78;5075359;28;20639;-65
2022/05/27 04:44:26;;;;;;;7.78;5.80;;;;;;;19.12;91.98;94991.19;5093620;28;20227;-60
2022/05/27 04:46:51;;;;;;;16.48;5.82;;;;;;;18.82;90.71;95002.38;5094204;28;20699;-59
2022/05/27 04:52:02;;;;;;;10.95;6.72;;;;;;;18.73;91.17;95000.00;5094048;28;20276;-62
2022/05/27 04:54:27;;;;;;;14.25;8.70;;;;;;;18.54;92.87;94982.41;5093319;28;20184;-59
2022/05/27 04:56:55;;;;;;;13.55;7.43;;;;;;;18.76;91.84;94997.09;5075485;28;20190;-61
2022/05/27 04:59:20;;;;;;;10.48;7.50;;;;;;;18.72;91.93;94998.41;5093184;28;20196;-64
2022/05/27 05:01:46;;;;;;;12.95;7.40;;;;;;;18.68;92.23;94992.00;5075277;28;20224;-64
2022/05/27 05:04:11;;;;;;;14.13;7.65;;;;;;;18.85;91.45;94999.44;5093280;28;20635;-63
2022/05/27 05:06:37;;;;;;;10.52;7.35;;;;;;;18.86;91.83;94990.75;5093470;28;20188;-62
2022/05/27 05:09:03;;;;;;;13.15;7.82;;;;;;;18.77;93.13;94983.22;5075006;28;20211;-61
2022/05/27 05:11:28;;;;;;;10.43;7.63;;;;;;;18.71;94.26;94974.41;5074918;28;20549;-65
2022/05/27 05:13:54;;;;;;;10.93;6.93;;;;;;;18.79;93.65;94981.28;5092709;28;20245;-60
2022/05/27 05:16:19;;;;;;;12.77;7.28;;;;;;;19.00;94.90;94981.47;5093158;28;20221;-63
2022/05/27 05:18:45;;;;;;;15.35;6.43;;;;;;;19.23;90.18;95020.88;5093283;28;20207;-59
2022/05/27 05:21:10;;;;;;;14.23;7.10;;;;;;;19.24;92.94;94997.53;5092767;28;20231;-61
2022/05/27 05:23:35;;;;;;;12.13;7.78;;;;;;;19.17;90.43;95017.22;5093084;28;20188;-62
2022/05/27 05:26:01;;;;;;;11.35;7.18;;;;;;;19.37;89.00;95033.09;5093044;28;20687;-64
2022/05/27 05:28:26;;;;;;;10.77;7.53;;;;;;;19.47;88.62;95028.47;5092767;28;20665;-63
2022/05/27 05:30:52;;;;;;;10.98;7.07;;;;;;;19.59;87.64;95039.97;5092863;28;20584;-60
2022/05/27 05:33:17;;;;;;;11.70;7.32;;;;;;;19.71;87.75;95030.84;5092714;28;20204;-64
2022/05/27 05:35:43;;;;;;;12.73;6.63;;;;;;;19.89;84.42;95071.78;5092508;28;20267;-63
2022/05/27 05:38:08;;;;;;;9.70;6.22;;;;;;;20.21;100.00;94969.97;5092384;28;20243;-61
2022/05/27 05:40:34;;;;;;;11.60;6.43;;;;;;;20.46;91.03;95015.19;5092376;28;20215;-63
2022/05/27 05:43:02;;;;;;;10.50;6.97;;;;;;;20.83;99.55;94981.38;5092365;28;20208;-60
2022/05/27 05:45:28;;;;;;;10.50;6.20;;;;;;;20.99;91.03;94993.28;5092217;28;20184;-59
2022/05/27 05:47:54;;;;;;;13.30;5.90;;;;;;;21.44;91.63;95023.94;5092324;28;20746;-60
2022/05/27 05:50:19;;;;;;;8.55;5.45;;;;;;;21.90;87.53;95055.38;5092112;28;20207;-63
2022/05/27 05:52:46;;;;;;;7.95;4.50;;;;;;;22.28;84.52;95069.56;5091680;28;20590;-62
2022/05/27 05:55:20;;;;;;;10.30;4.80;;;;;;;22.50;77.54;95141.03;5092392;28;20660;-63
2022/05/27 05:57:48;;;;;;;6.40;4.00;;;;;;;22.86;79.39;95104.53;5091947;28;20196;-63
2022/05/27 06:00:18;;;;;;;7.43;4.50;;;;;;;23.17;75.31;95147.16;5092206;28;20216;-62
2022/05/27 06:02:43;;;;;;;7.07;4.53;;;;;;;23.06;70.93;95185.81;5092101;28;20185;-60
2022/05/27 06:05:09;;;;;;;6.63;4.30;;;;;;;23.28;70.80;95171.75;5073720;28;20198;-59
2022/05/27 06:07:34;;;;;;;7.93;4.00;;;;;;;23.51;69.63;95195.63;5091793;28;20176;-60
2022/05/27 06:10:01;;;;;;;7.47;3.83;;;;;;;23.37;70.48;95146.44;5092145;28;20237;-61
2022/05/27 06:12:27;;;;;;;5.97;3.60;;;;;;;23.55;70.39;95150.09;5091792;28;20200;-62
2022/05/27 06:14:54;;;;;;;7.40;4.90;;;;;;;23.22;65.38;95229.59;5073670;28;20180;-60
2022/05/27 06:17:20;;;;;;;12.95;4.35;;;;;;;22.05;69.17;95152.69;5073636;28;20233;-64
2022/05/27 06:19:46;;;;;;;6.22;4.18;;;;;;;21.71;70.30;95122.28;5057134;28;20180;-62
2022/05/27 06:22:12;;;;;;;5.47;3.47;;;;;;;21.58;70.57;95124.78;5073882;28;20176;-65
2022/05/27 06:24:37;;;;;;;6.03;3.63;;;;;;;21.31;70.82;95109.97;5091702;28;20192;-64
2022/05/27 06:27:07;;;;;;;8.63;4.00;;;;;;;20.98;72.06;95090.72;5092157;28;20618;-63
2022/05/27 06:35:01;;;;;;;7.32;4.03;;;;;;;20.63;72.69;95078.56;5091601;28;20645;-62
2022/05/27 06:37:27;;;;;;;8.60;4.05;;;;;;;20.64;74.00;95054.34;5091746;28;20183;-60
2022/05/27 06:39:53;;;;;;;10.57;4.00;;;;;;;20.60;74.04;95053.91;5091367;28;20204;-62
2022/05/27 06:42:19;;;;;;;5.97;4.03;;;;;;;20.74;73.56;95062.59;5091607;28;20172;-63
2022/05/27 06:44:44;;;;;;;8.93;4.25;;;;;;;20.78;73.49;95067.25;5091569;28;20259;-64
2022/05/27 06:47:10;;;;;;;5.65;4.18;;;;;;;20.93;73.94;95062.81;5091364;28;20184;-61
2022/05/27 06:49:37;;;;;;;8.80;4.15;;;;;;;21.09;73.73;95059.22;5091543;28;20204;-62
2022/05/27 06:52:04;;;;;;;8.45;4.38;;;;;;;21.29;71.90;95082.72;5091777;28;20191;-63
2022/05/27 06:54:29;;;;;;;9.20;4.15;;;;;;;21.41;71.74;95094.16;5091447;28;20274;-64
2022/05/27 06:56:55;;;;;;;7.82;4.00;;;;;;;21.05;71.34;95091.59;5091877;28;20247;-64
2022/05/27 06:59:22;;;;;;;9.15;4.22;;;;;;;21.15;70.69;95102.44;5072965;28;20216;-62
2022/05/27 07:01:48;;;;;;;6.00;3.25;;;;;;;21.08;70.10;95106.75;5091604;28;20227;-63
2022/05/27 07:04:17;;;;;;;9.38;3.95;;;;;;;21.09;69.13;95123.88;5091971;28;20200;-62
2022/05/27 07:06:45;;;;;;;4.75;3.67;;;;;;;21.08;69.72;95109.34;5095857;28;20658;-61
2022/05/27 07:09:13;;;;;;;5.80;3.70;;;;;;;21.17;70.70;95082.38;5077327;28;20536;-63
2022/05/27 07:11:42;;;;;;;8.40;3.63;;;;;;;21.26;70.00;95096.00;5095574;28;20184;-63
2022/05/27 07:14:07;;;;;;;5.30;3.25;;;;;;;21.37;68.97;95114.41;5095164;28;20205;-60
2022/05/27 07:16:33;;;;;;;8.25;4.70;;;;;;;21.35;69.02;95107.84;5076943;28;20229;-60
2022/05/27 07:18:58;;;;;;;6.78;3.70;;;;;;;21.42;68.11;95116.44;5094787;28;20194;-60
2022/05/27 07:21:25;;;;;;;6.15;3.67;;;;;;;21.56;67.70;95118.97;5094508;28;20570;-62
2022/05/27 07:23:53;;;;;;;5.60;2.83;;;;;;;21.66;64.27;95189.34;5095050;28;20200;-61
2022/05/27 07:26:20;;;;;;;5.90;3.00;;;;;;;21.89;63.20;95196.16;5076991;28;20246;-60
2022/05/27 07:28:45;;;;;;;7.55;3.22;;;;;;;21.91;63.75;95176.06;5094889;28;20196;-62
2022/05/27 07:31:11;;;;;;;6.93;3.83;;;;;;;21.86;64.64;95160.28;5094910;28;20195;-62
2022/05/27 07:33:37;;;;;;;6.35;3.50;;;;;;;21.89;64.60;95146.97;5094975;28;20616;-62
2022/05/27 07:36:03;;;;;;;7.70;3.08;;;;;;;21.99;64.72;95137.91;5076235;28;20223;-61
2022/05/27 07:38:28;;;;;;;9.43;4.18;;;;;;;22.32;62.53;95174.41;5094586;28;20268;-63
2022/05/27 07:40:54;;;;;;;7.25;3.55;;;;;;;22.08;64.31;95135.97;5094850;28;20243;-64
2022/05/27 07:43:19;;;;;;;5.85;3.20;;;;;;;22.09;63.21;95146.16;5076207;28;20204;-63
2022/05/27 07:45:45;;;;;;;10.88;3.97;;;;;;;22.10;63.00;95144.38;5076288;28;20185;-65
2022/05/27 07:48:11;;;;;;;4.93;2.83;;;;;;;22.61;62.34;95161.25;5094450;28;20200;-64
2022/05/27 07:50:38;;;;;;;5.05;3.15;;;;;;;22.63;60.03;95213.72;5094680;28;20181;-63
2022/05/27 07:53:03;;;;;;;6.35;3.30;;;;;;;22.70;59.86;95204.19;5076295;28;20219;-61
2022/05/27 07:55:29;;;;;;;9.45;4.00;;;;;;;22.54;60.21;95176.72;5094384;28;20172;-60
2022/05/27 07:57:55;;;;;;;6.90;3.13;;;;;;;22.56;61.40;95141.06;5075848;28;20203;-63
2022/05/27 08:00:27;;;;;;;7.43;3.75;;;;;;;22.64;61.12;95145.34;5094206;28;20243;-60
2022/05/27 08:02:54;;;;;;;8.48;3.28;;;;;;;22.63;61.68;95130.75;5093946;28;20203;-60
2022/05/27 08:05:25;;;;;;;7.47;3.70;;;;;;;22.72;59.50;95181.47;5094091;28;20192;-60
2022/05/27 08:07:52;;;;;;;9.43;3.88;;;;;;;22.77;58.22;95205.03;5094077;28;20193;-60
2022/05/27 08:10:21;;;;;;;6.60;2.85;;;;;;;22.84;56.90;95231.81;5093940;28;20641;-63
2022/05/27 08:12:47;;;;;;;6.70;3.78;;;;;;;23.21;56.26;95215.81;5101364;22;20732;-64
2022/05/27 08:15:13;;;;;;;7.93;3.33;;;;;;;23.08;55.71;95223.56;5093243;28;20325;-64
2022/05/27 08:17:39;;;;;;;3.88;3.10;;;;;;;22.94;54.62;95229.69;5093852;28;20207;-63
2022/05/27 08:20:07;;;;;;;5.57;2.85;;;;;;;23.04;55.81;95191.22;5093720;28;20199;-62
2022/05/27 08:22:32;;;;;;;11.48;3.33;;;;;;;23.18;54.35;95225.78;5093656;28;20202;-61
2022/05/27 08:24:58;;;;;;;8.65;3.28;;;;;;;23.32;54.84;95193.75;5093828;28;20185;-62
2022/05/27 08:27:23;;;;;;;5.03;3.33;;;;;;;23.29;55.77;95178.53;5093379;28;20184;-65
2022/05/27 08:29:49;;;;;;;5.75;3.33;;;;;;;23.40;57.07;95128.69;5093486;28;20185;-65
2022/05/27 08:32:14;;;;;;;9.93;3.78;;;;;;;23.84;57.60;95131.53;5075671;28;20190;-62
2022/05/27 08:40:47;;;;;;;5.57;3.50;;;;;;;23.99;58.02;95105.38;5093969;28;20254;-62
2022/05/27 08:43:43;;;;;;;12.98;3.80;;;;;;;23.94;56.91;95131.13;5063150;28;20311;-65
2022/05/27 08:46:29;;;;;;;6.65;3.63;;;;;;;24.30;56.83;95135.97;5075313;28;20598;-61
2022/05/27 08:48:58;;;;;;;7.28;3.75;;;;;;;24.48;57.47;95104.94;5093924;28;20192;-65
2022/05/27 08:51:29;;;;;;;8.02;3.83;;;;;;;24.42;56.43;95134.34;5075295;28;20574;-61
2022/05/27 08:54:02;;;;;;;7.13;3.58;;;;;;;24.34;57.80;95093.75;5093727;28;20623;-63
2022/05/27 08:59:27;;;;;;;7.90;3.40;;;;;;;24.61;56.47;95126.50;5093788;28;20215;-62
2022/05/27 09:02:09;;;;;;;4.68;3.47;;;;;;;24.66;54.74;95160.50;5092902;28;20192;-61
2022/05/27 09:04:38;;;;;;;11.45;3.72;;;;;;;24.62;54.11;95174.91;5093435;28;20682;-65
2022/05/27 09:07:31;;;;;;;11.43;3.83;;;;;;;24.66;53.96;95173.50;5093581;28;20165;-61
2022/05/27 09:10:00;;;;;;;7.10;3.97;;;;;;;25.01;53.16;95188.84;5093010;28;20204;-60
2022/05/27 09:12:37;;;;;;;8.02;4.63;;;;;;;24.88;52.63;95187.88;5092997;28;20629;-61
2022/05/27 09:15:03;;;;;;;8.35;3.88;;;;;;;24.90;53.11;95178.06;5092838;28;20206;-63
2022/05/27 09:17:44;;;;;;;9.07;4.05;;;;;;;25.38;54.76;95125.59;5093173;28;20192;-65
2022/05/27 09:20:26;;;;;;;8.70;3.97;;;;;;;25.17;52.48;95183.19;5092653;28;20208;-61
2022/05/27 09:23:21;;;;;;;7.57;4.05;;;;;;;25.24;53.62;95147.50;5092651;28;20196;-63
2022/05/27 09:26:10;;;;;;;9.82;3.85;;;;;;;25.35;53.41;95144.25;5092675;28;20246;-65
2022/05/27 09:28:38;;;;;;;7.28;3.70;;;;;;;25.37;52.47;95165.69;5091911;28;20295;-63
2022/05/27 09:31:07;;;;;;;10.07;4.32;;;;;;;25.63;53.23;95145.50;5092417;28;20486;-63
2022/05/27 09:33:34;;;;;;;7.40;3.75;;;;;;;25.86;52.45;95155.38;5092276;28;20283;-62
2022/05/27 09:36:05;;;;;;;9.20;4.13;;;;;;;26.07;52.57;95149.84;5074060;28;20230;-60
2022/05/27 09:38:34;;;;;;;8.55;3.95;;;;;;;26.42;51.81;95166.56;5092246;28;20216;-62
2022/05/27 09:40:59;;;;;;;8.77;3.78;;;;;;;26.54;50.28;95193.53;5092394;28;20224;-61
2022/05/27 09:43:31;;;;;;;8.23;4.15;;;;;;;26.27;51.84;95134.03;5092156;28;20196;-61
2022/05/27 09:46:03;;;;;;;6.97;4.15;;;;;;;26.11;50.04;95179.69;5092348;28;20168;-61
2022/05/27 09:48:29;;;;;;;10.15;4.15;;;;;;;26.60;49.57;95184.09;5074145;28;20701;-60
2022/05/27 09:51:00;;;;;;;8.30;4.03;;;;;;;26.76;50.57;95154.03;5092270;28;20700;-62
2022/05/27 09:53:36;;;;;;;5.47;3.80;;;;;;;26.43;48.81;95189.03;5092332;28;20206;-64
2022/05/27 09:56:13;;;;;;;9.95;3.90;;;;;;;26.56;48.50;95188.13;5091985;28;20168;-62
2022/05/27 09:58:44;;;;;;;6.75;3.78;;;;;;;26.85;49.07;95147.50;5092292;28;20268;-61
2022/05/27 10:01:27;;;;;;;11.77;3.67;;;;;;;26.99;49.12;95121.03;5091681;28;20712;-62
2022/05/27 10:04:02;;;;;;;8.43;3.97;;;;;;;27.20;48.65;95114.56;5100053;22;20370;-62
2022/05/27 10:06:30;;;;;;;7.47;3.92;;;;;;;27.36;47.31;95145.31;5073628;28;20241;-61
2022/05/27 10:09:00;;;;;;;12.48;3.90;;;;;;;27.57;48.87;95086.56;5092070;28;20646;-60
2022/05/27 10:11:31;;;;;;;7.82;3.50;;;;;;;27.77;48.33;95106.16;5073535;28;20180;-62
2022/05/27 10:14:21;;;;;;;15.15;4.78;;;;;;;28.25;46.60;95111.22;5092105;28;20203;-63
2022/05/27 10:17:05;;;;;;;11.25;4.13;;;;;;;28.22;46.86;95099.38;5091898;28;20164;-62
2022/05/27 10:19:38;;;;;;;8.82;3.60;;;;;;;28.40;44.71;95131.69;5091688;28;20200;-61
2022/05/27 10:22:05;;;;;;;5.28;3.88;;;;;;;28.74;43.89;95133.53;5091387;28;20224;-61
2022/05/27 10:24:34;;;;;;;6.70;3.53;;;;;;;28.78;43.42;95118.94;5091756;28;20207;-63
2022/05/27 10:27:11;;;;;;;8.75;3.72;;;;;;;28.58;44.64;95082.69;5091549;28;20223;-60
2022/05/27 10:29:55;;;;;;;7.38;3.53;;;;;;;28.93;43.65;95078.16;5073726;28;20204;-65
2022/05/27 10:32:38;;;;;;;8.32;4.28;;;;;;;29.28;44.70;95056.28;5073605;28;20176;-64
2022/05/27 10:35:08;;;;;;;11.05;3.55;;;;;;;28.99;42.65;95094.75;5091614;28;20268;-62
2022/05/27 10:37:39;;;;;;;6.75;3.47;;;;;;;28.85;42.83;95090.81;5073229;28;20193;-64
2022/05/27 10:40:24;;;;;;;5.65;3.15;;;;;;;28.72;43.06;95072.75;5084700;22;20751;-64
2022/05/27 10:43:05;;;;;;;5.18;3.45;;;;;;;29.13;42.61;95059.38;5095882;28;20200;-64
2022/05/27 10:45:32;;;;;;;7.38;3.25;;;;;;;29.17;42.16;95065.00;5095925;28;20200;-61
2022/05/27 10:48:22;;;;;;;7.80;3.47;;;;;;;29.24;41.97;95047.31;5095492;28;20196;-61
2022/05/27 10:51:02;;;;;;;8.25;3.67;;;;;;;29.44;43.27;95018.84;5095796;28;20225;-61
2022/05/27 10:54:11;;;;;;;8.50;4.00;;;;;;;29.66;41.83;95025.75;5095703;28;20294;-63
2022/05/27 11:02:52;;;;;;;10.60;3.22;;;;;;;29.91;38.46;95066.53;5095698;28;20212;-63
2022/05/27 11:05:32;;;;;;;8.13;3.67;;;;;;;29.76;38.59;95043.50;5077088;28;20191;-65
2022/05/27 11:08:03;;;;;;;12.30;2.90;;;;;;;29.24;36.69;95055.16;5095974;28;20693;-64
2022/05/27 11:11:11;;;;;;;4.25;2.78;;;;;;;29.80;39.25;95000.84;5077087;28;20180;-60
2022/05/27 11:16:46;;;;;;;11.07;3.38;;;;;;;29.70;36.54;95039.97;5095445;28;20176;-62
2022/05/27 11:19:37;;;;;;;5.25;2.75;;;;;;;29.79;37.18;95015.00;5095524;28;20208;-64
2022/05/27 11:22:15;;;;;;;7.72;2.95;;;;;;;29.91;37.24;95006.22;5076684;28;20208;-64
2022/05/27 11:25:15;;;;;;;7.85;3.30;;;;;;;29.86;37.04;94999.06;5077195;28;20200;-65
2022/05/27 11:28:11;;;;;;;5.20;3.15;;;;;;;30.37;37.88;94963.84;5076672;28;20196;-64
2022/05/27 11:31:18;;;;;;;9.57;3.40;;;;;;;30.61;36.09;94994.84;5094964;28;20172;-63
2022/05/27 11:34:18;;;;;;;9.90;2.80;;;;;;;30.65;36.21;94992.53;5053677;28;20218;-62
2022/05/27 11:36:50;;;;;;;12.02;3.25;;;;;;;30.64;36.56;94957.59;5053624;28;20187;-62
2022/05/27 11:39:37;;;;;;;11.70;4.07;;;;;;;30.46;36.05;94965.78;5076566;28;20638;-61
2022/05/27 11:42:13;;;;;;;8.18;3.15;;;;;;;30.79;36.80;94949.06;5076502;28;20295;-65
2022/05/27 11:44:53;;;;;;;8.77;3.05;;;;;;;30.49;36.58;94940.88;5095301;28;20203;-61
2022/05/27 11:47:42;;;;;;;8.05;3.08;;;;;;;30.36;36.77;94939.41;5094454;28;20171;-64
2022/05/27 11:50:27;;;;;;;7.45;3.45;;;;;;;30.61;37.10;94926.59;5093657;28;20258;-62
2022/05/27 11:53:07;;;;;;;9.73;3.28;;;;;;;30.75;36.63;94921.72;5094301;28;20219;-62
2022/05/27 11:55:56;;;;;;;8.60;3.50;;;;;;;31.27;37.10;94901.72;5094650;28;20203;-65
2022/05/27 11:58:34;;;;;;;13.77;4.38;;;;;;;31.50;37.50;94891.91;5064292;28;20269;-64
2022/05/27 12:01:06;;;;;;;11.45;3.50;;;;;;;31.03;36.93;94905.72;5076089;28;20203;-63
2022/05/27 12:03:40;;;;;;;7.60;4.07;;;;;;;31.38;35.36;94929.72;5094289;28;20242;-60
2022/05/27 12:06:22;;;;;;;8.00;3.13;;;;;;;30.87;35.79;94904.00;5094441;28;20612;-62
2022/05/27 12:09:02;;;;;;;6.70;3.15;;;;;;;30.68;35.96;94898.28;5094483;28;20266;-61
2022/05/27 12:11:50;;;;;;;5.95;3.25;;;;;;;30.32;36.73;94882.44;5094069;28;20185;-61
2022/05/27 12:14:23;;;;;;;8.07;4.18;;;;;;;30.95;37.13;94861.53;5094249;28;20226;-62
2022/05/27 12:16:50;;;;;;;8.52;3.55;;;;;;;31.03;36.70;94868.94;5094017;28;20165;-61
2022/05/27 12:19:33;;;;;;;9.30;3.42;;;;;;;31.38;35.65;94898.16;5075961;28;20723;-61
2022/05/27 12:22:09;;;;;;;6.95;3.78;;;;;;;31.74;37.78;94832.63;5075696;28;20710;-65
2022/05/27 12:24:45;;;;;;;8.07;3.22;;;;;;;31.53;36.19;94873.03;5094001;28;20737;-64
2022/05/27 12:27:14;;;;;;;8.70;3.30;;;;;;;31.16;34.91;94894.81;5094246;28;20184;-62